Time;durP1;ratioP1;P1;durP2;ratioP2;P2;SDS_P1;SDS_P2;PMS_P1;PMS_P2;Temp;Humidity;BMP_temperature;BMP_pressure;BME280_temperature;BME280_humidity;BME280_pressure;Samples;Min_cycle;Max_cycle;Signal;HPM_P1;HPM_P2
2023/10/28 00:00:34;;;;;;;2.88;0.93;;;;;;;;;;4990396;28;20026;-57
2023/10/28 00:03:23;;;;;;;2.65;1.00;;;;;;;;;;4990369;28;20494;-57
2023/10/28 00:06:11;;;;;;;2.05;1.00;;;;;;;;;;4988737;28;20026;-57
2023/10/28 00:14:35;;;;;;;3.83;1.13;;;;;;;;;;4980785;28;20458;-56
2023/10/28 00:17:10;;;;;;;;;;;;;;;;;;4970659;28;20372;-57
2023/10/28 00:19:42;;;;;;;2.00;0.90;;;;;;;;;;4979127;28;20020;-57
2023/10/28 00:22:46;;;;;;;2.40;1.10;;;;;;;;;;4982138;28;20069;-57
2023/10/28 00:37:29;;;;;;;1.90;0.70;;;;;;;;;;4983963;28;20574;-57
2023/10/28 00:40:44;;;;;;;2.58;0.75;;;;;;;;;;4961658;28;20036;-57
2023/10/28 00:43:33;;;;;;;2.10;0.80;;;;;;;;;;4989081;28;20068;-57
2023/10/28 00:50:04;;;;;;;2.03;0.80;;;;;;;;;;4985765;28;20045;-57
2023/10/28 00:56:19;;;;;;;3.78;0.63;;;;;;;;;;4988226;28;20041;-57
2023/10/28 00:59:07;;;;;;;2.55;0.68;;;;;;;;;;4969640;28;20026;-57
2023/10/28 01:05:00;;;;;;;2.30;0.80;;;;;;;;;;4985970;28;20045;-57
2023/10/28 01:07:40;;;;;;;;;;;;;;;;;;4978354;28;20125;-57
2023/10/28 01:10:46;;;;;;;1.90;0.73;;;;;;;;;;4987860;28;19898;-58
2023/10/28 01:13:34;;;;;;;1.33;0.63;;;;;;;;;;4989923;28;20030;-58
2023/10/28 01:17:03;;;;;;;2.08;0.50;;;;;;;;;;4970802;28;20056;-57
2023/10/28 01:23:05;;;;;;;2.03;0.80;;;;;;;;;;4987165;28;20053;-59
2023/10/28 01:26:12;;;;;;;1.77;0.63;;;;;;;;;;4992446;28;20026;-56
2023/10/28 01:29:29;;;;;;;2.70;0.70;;;;;;;;;;4987684;28;20044;-57
2023/10/28 01:32:17;;;;;;;3.15;0.70;;;;;;;;;;4985631;28;20038;-58
2023/10/28 01:35:05;;;;;;;2.28;0.77;;;;;;;;;;4985399;28;20057;-57
2023/10/28 01:37:53;;;;;;;2.05;0.77;;;;;;;;;;4972473;28;20513;-57
2023/10/28 01:44:06;;;;;;;2.25;0.60;;;;;;;;;;4986765;28;20053;-58
2023/10/28 01:46:55;;;;;;;;;;;;;;;;;;4991275;28;20513;-58
2023/10/28 01:49:33;;;;;;;1.17;0.57;;;;;;;;;;4984376;28;19997;-58
2023/10/28 01:52:31;;;;;;;2.65;0.60;;;;;;;;;;4985374;28;20033;-58
2023/10/28 01:55:19;;;;;;;1.75;0.57;;;;;;;;;;4958090;28;20114;-58
2023/10/28 01:58:07;;;;;;;2.72;0.70;;;;;;;;;;4985972;28;20038;-58
2023/10/28 02:04:10;;;;;;;2.78;0.60;;;;;;;;;;4987528;28;20044;-58
2023/10/28 02:06:58;;;;;;;2.25;0.68;;;;;;;;;;4981273;28;20058;-58
2023/10/28 02:09:48;;;;;;;2.47;0.50;;;;;;;;;;4980604;28;20096;-59
2023/10/28 02:12:53;;;;;;;1.55;0.70;;;;;;;;;;4988486;28;20060;-58
2023/10/28 02:16:00;;;;;;;2.08;0.70;;;;;;;;;;4985033;28;20034;-58
2023/10/28 02:18:50;;;;;;;3.00;0.80;;;;;;;;;;4986447;28;20497;-58
2023/10/28 02:22:06;;;;;;;3.53;1.08;;;;;;;;;;4975270;28;20061;-58
2023/10/28 02:27:41;;;;;;;3.30;1.10;;;;;;;;;;4987507;28;20037;-58
2023/10/28 02:30:30;;;;;;;3.72;0.90;;;;;;;;;;4989618;28;20049;-59
2023/10/28 02:33:17;;;;;;;3.28;0.80;;;;;;;;;;4982199;28;20053;-57
2023/10/28 02:36:05;;;;;;;2.45;1.00;;;;;;;;;;4991600;28;20034;-56
2023/10/28 02:38:52;;;;;;;4.25;1.02;;;;;;;;;;4954101;28;20100;-56
2023/10/28 02:41:41;;;;;;;3.45;1.85;;;;;;;;;;4984209;28;20399;-56
2023/10/28 02:44:29;;;;;;;4.32;1.08;;;;;;;;;;4991924;28;20018;-59
2023/10/28 02:50:33;;;;;;;2.20;1.00;;;;;;;;;;4988270;28;20432;-56
2023/10/28 02:56:27;;;;;;;2.60;1.20;;;;;;;;;;4989356;28;20533;-57
2023/10/28 02:59:34;;;;;;;3.03;0.90;;;;;;;;;;4988681;28;20093;-58
2023/10/28 03:02:23;;;;;;;3.67;1.02;;;;;;;;;;4967390;28;20042;-57
2023/10/28 03:05:11;;;;;;;2.05;0.90;;;;;;;;;;4981592;28;20398;-57
2023/10/28 03:08:28;;;;;;;3.08;1.02;;;;;;;;;;4981445;28;20132;-56
2023/10/28 03:11:43;;;;;;;3.20;1.20;;;;;;;;;;4989734;28;20022;-59
2023/10/28 03:14:32;;;;;;;2.90;1.25;;;;;;;;;;4985939;28;20379;-58
2023/10/28 03:17:19;;;;;;;2.97;1.13;;;;;;;;;;4988110;28;20112;-59
2023/10/28 03:19:57;;;;;;;3.55;1.10;;;;;;;;;;4989717;28;20073;-57
2023/10/28 03:28:32;;;;;;;1.83;1.00;;;;;;;;;;4990110;28;20122;-58
2023/10/28 03:34:19;;;;;;;1.98;0.85;;;;;;;;;;4962868;28;20049;-56
2023/10/28 03:36:56;;;;;;;3.33;1.08;;;;;;;;;;4990478;28;20046;-57
2023/10/28 03:45:30;;;;;;;2.37;1.00;;;;;;;;;;4978405;28;20513;-56
2023/10/28 03:48:19;;;;;;;3.30;1.15;;;;;;;;;;4991522;28;20872;-57
2023/10/28 03:51:07;;;;;;;2.47;1.02;;;;;;;;;;4988370;28;20489;-56
2023/10/28 03:53:44;;;;;;;2.75;1.10;;;;;;;;;;4979693;28;20475;-57
2023/10/28 03:56:10;;;;;;;3.97;1.10;;;;;;;;;;5099108;23;20302;-79
2023/10/28 03:58:35;;;;;;;2.80;1.20;;;;;;;;;;5008388;28;20508;-79
2023/10/28 04:01:00;;;;;;;2.20;1.03;;;;;;;;;;5009495;28;20532;-79
2023/10/28 04:03:26;;;;;;;2.40;1.20;;;;;;;;;;4996248;28;20305;-79
2023/10/28 04:05:51;;;;;;;2.80;1.30;;;;;;;;;;4998798;28;20049;-79
2023/10/28 04:08:16;;;;;;;3.27;1.20;;;;;;;;;;5007702;28;20034;-79
2023/10/28 04:10:41;;;;;;;1.60;0.90;;;;;;;;;;5006853;28;20351;-79
2023/10/28 04:13:06;;;;;;;3.53;1.20;;;;;;;;;;5005885;28;20060;-79
2023/10/28 04:15:32;;;;;;;2.93;0.90;;;;;;;;;;5001072;28;20045;-72
2023/10/28 04:17:57;;;;;;;2.23;0.93;;;;;;;;;;5000610;28;20303;-71
2023/10/28 04:20:22;;;;;;;2.90;1.05;;;;;;;;;;5006150;28;20034;-71
2023/10/28 04:22:48;;;;;;;1.70;0.90;;;;;;;;;;5013853;28;20061;-71
2023/10/28 04:25:14;;;;;;;3.57;1.07;;;;;;;;;;4995403;28;20135;-71
2023/10/28 04:27:39;;;;;;;2.95;1.17;;;;;;;;;;4997913;28;20284;-71
2023/10/28 04:30:05;;;;;;;3.23;1.20;;;;;;;;;;4988159;28;20035;-70
2023/10/28 04:32:30;;;;;;;3.47;0.93;;;;;;;;;;4993539;28;20038;-71
2023/10/28 04:34:56;;;;;;;2.63;1.10;;;;;;;;;;4977337;28;20085;-71
2023/10/28 04:37:21;;;;;;;2.13;0.85;;;;;;;;;;5003604;28;20039;-71
2023/10/28 04:39:46;;;;;;;2.03;1.03;;;;;;;;;;4987377;28;20038;-70
2023/10/28 04:42:11;;;;;;;1.93;1.00;;;;;;;;;;4987636;28;20290;-70
2023/10/28 04:44:37;;;;;;;3.33;1.20;;;;;;;;;;4974082;28;20806;-71
2023/10/28 04:47:02;;;;;;;2.78;1.00;;;;;;;;;;4992059;28;20069;-71
2023/10/28 04:49:31;;;;;;;2.72;1.23;;;;;;;;;;4974285;28;20547;-71
2023/10/28 04:51:56;;;;;;;3.75;1.17;;;;;;;;;;5008172;28;20485;-71
2023/10/28 04:54:21;;;;;;;1.80;0.93;;;;;;;;;;5006640;28;20082;-70
2023/10/28 04:56:48;;;;;;;3.63;1.13;;;;;;;;;;4989945;28;20837;-71
2023/10/28 04:59:14;;;;;;;3.28;1.35;;;;;;;;;;5009115;28;20046;-72
2023/10/28 05:01:40;;;;;;;2.70;1.10;;;;;;;;;;4989978;28;20045;-71
2023/10/28 05:04:06;;;;;;;2.30;1.00;;;;;;;;;;4996376;28;20039;-70
2023/10/28 05:06:31;;;;;;;3.30;1.13;;;;;;;;;;5005460;28;20036;-71
2023/10/28 05:08:57;;;;;;;4.17;1.30;;;;;;;;;;4991269;28;20533;-71
2023/10/28 05:11:23;;;;;;;2.78;0.93;;;;;;;;;;4987595;28;20393;-72
2023/10/28 05:13:48;;;;;;;2.33;1.00;;;;;;;;;;4988060;28;20159;-72
2023/10/28 05:16:13;;;;;;;3.85;1.40;;;;;;;;;;5003052;28;20034;-72
2023/10/28 05:18:39;;;;;;;2.25;1.13;;;;;;;;;;4996734;28;20038;-70
2023/10/28 05:21:05;;;;;;;3.40;1.23;;;;;;;;;;5004988;28;20424;-70
2023/10/28 05:23:30;;;;;;;2.67;1.17;;;;;;;;;;4997322;28;20284;-70
2023/10/28 05:25:56;;;;;;;2.00;1.08;;;;;;;;;;4997627;28;20034;-71
2023/10/28 05:28:21;;;;;;;4.37;1.40;;;;;;;;;;4996687;28;20049;-72
2023/10/28 05:30:46;;;;;;;2.95;1.50;;;;;;;;;;4996326;28;20030;-70
2023/10/28 05:33:12;;;;;;;3.55;1.48;;;;;;;;;;4994003;28;20490;-70
2023/10/28 05:35:38;;;;;;;3.08;1.30;;;;;;;;;;4995810;28;20034;-69
2023/10/28 05:38:03;;;;;;;2.30;1.50;;;;;;;;;;4996833;28;20049;-70
2023/10/28 05:40:28;;;;;;;3.10;1.40;;;;;;;;;;4977345;28;20495;-70
2023/10/28 05:42:54;;;;;;;2.90;1.50;;;;;;;;;;4975912;28;20043;-70
2023/10/28 05:45:20;;;;;;;2.38;1.17;;;;;;;;;;4978219;28;20037;-70
2023/10/28 05:47:46;;;;;;;2.65;1.25;;;;;;;;;;4994148;28;20497;-74
2023/10/28 05:50:11;;;;;;;3.63;1.42;;;;;;;;;;4991480;28;20100;-72
2023/10/28 05:52:38;;;;;;;2.33;1.40;;;;;;;;;;4996755;28;20041;-75
2023/10/28 05:55:03;;;;;;;8.45;1.40;;;;;;;;;;4996868;28;20284;-70
2023/10/28 05:57:29;;;;;;;4.68;1.55;;;;;;;;;;4977841;28;20163;-73
2023/10/28 05:59:54;;;;;;;5.95;1.50;;;;;;;;;;4994154;28;20129;-71
2023/10/28 06:02:19;;;;;;;3.90;1.37;;;;;;;;;;4997031;28;20054;-70
2023/10/28 06:04:45;;;;;;;3.53;1.37;;;;;;;;;;4992990;28;20320;-68
2023/10/28 06:07:10;;;;;;;4.00;1.27;;;;;;;;;;5000526;28;20288;-70
2023/10/28 06:09:36;;;;;;;3.22;1.55;;;;;;;;;;4999128;28;20137;-71
2023/10/28 06:12:01;;;;;;;3.55;1.40;;;;;;;;;;4996104;28;20038;-72
2023/10/28 06:14:26;;;;;;;4.00;1.40;;;;;;;;;;4997327;28;20488;-72
2023/10/28 06:16:52;;;;;;;3.47;1.23;;;;;;;;;;4996438;28;21223;-71
2023/10/28 06:19:21;;;;;;;2.90;1.47;;;;;;;;;;5000343;28;20082;-74
2023/10/28 06:21:47;;;;;;;3.08;1.52;;;;;;;;;;4997009;28;20042;-73
2023/10/28 06:24:12;;;;;;;3.55;1.85;;;;;;;;;;4977882;28;20508;-74
2023/10/28 06:26:39;;;;;;;2.93;1.70;;;;;;;;;;5005751;28;20116;-73
2023/10/28 06:29:05;;;;;;;3.83;1.30;;;;;;;;;;5027374;28;20304;-74
2023/10/28 06:31:31;;;;;;;3.35;1.60;;;;;;;;;;5024836;28;20030;-74
2023/10/28 06:34:06;;;;;;;3.13;1.42;;;;;;;;;;4998192;28;20034;-72
2023/10/28 06:36:37;;;;;;;5.70;1.60;;;;;;;;;;5005099;28;20038;-71
2023/10/28 06:39:02;;;;;;;3.75;1.65;;;;;;;;;;5033223;28;20156;-72
2023/10/28 06:41:31;;;;;;;4.82;1.73;;;;;;;;;;5022530;28;20046;-74
2023/10/28 06:44:15;;;;;;;3.10;1.55;;;;;;;;;;5008236;28;20050;-71
2023/10/28 06:46:40;;;;;;;4.15;1.65;;;;;;;;;;5013497;28;20141;-72
2023/10/28 06:49:19;;;;;;;4.57;1.70;;;;;;;;;;4998365;28;20347;-72
2023/10/28 06:51:45;;;;;;;3.33;1.60;;;;;;;;;;5013761;28;20042;-71
2023/10/28 06:54:10;;;;;;;3.72;1.25;;;;;;;;;;5004765;28;20027;-69
2023/10/28 06:56:36;;;;;;;6.10;1.80;;;;;;;;;;5006238;28;20099;-71
2023/10/28 06:59:01;;;;;;;3.38;1.90;;;;;;;;;;5028721;28;20052;-70
2023/10/28 07:01:39;;;;;;;3.25;1.48;;;;;;;;;;5024067;28;20045;-70
2023/10/28 07:04:05;;;;;;;3.10;1.38;;;;;;;;;;5024534;28;20571;-71
2023/10/28 07:06:31;;;;;;;4.45;1.83;;;;;;;;;;4995584;28;20009;-71
2023/10/28 07:09:03;;;;;;;2.92;1.67;;;;;;;;;;5013817;28;20029;-69
2023/10/28 07:11:28;;;;;;;3.00;1.50;;;;;;;;;;5000059;28;20022;-69
2023/10/28 07:13:57;;;;;;;5.03;1.85;;;;;;;;;;4993731;28;21514;-69
2023/10/28 07:16:22;;;;;;;4.10;1.80;;;;;;;;;;4983271;28;20099;-74
2023/10/28 07:18:48;;;;;;;4.00;1.83;;;;;;;;;;5003869;28;20551;-74
2023/10/28 07:21:17;;;;;;;6.13;1.45;;;;;;;;;;5001591;28;20329;-75
2023/10/28 07:24:03;;;;;;;4.03;1.42;;;;;;;;;;5005005;28;20065;-73
2023/10/28 07:26:29;;;;;;;4.28;1.60;;;;;;;;;;5016400;28;20448;-75
2023/10/28 07:28:54;;;;;;;4.25;2.00;;;;;;;;;;5009542;28;20090;-75
2023/10/28 07:31:20;;;;;;;7.57;1.77;;;;;;;;;;5014506;28;20037;-75
2023/10/28 07:33:46;;;;;;;4.13;1.60;;;;;;;;;;5026676;28;20038;-74
2023/10/28 07:36:12;;;;;;;3.35;1.50;;;;;;;;;;5028174;28;20103;-75
2023/10/28 07:38:38;;;;;;;4.55;1.67;;;;;;;;;;5030606;28;20034;-75
2023/10/28 07:41:04;;;;;;;4.43;1.70;;;;;;;;;;5032065;28;20026;-74
2023/10/28 07:43:29;;;;;;;5.18;1.83;;;;;;;;;;5017052;28;20036;-75
2023/10/28 07:53:40;;;;;;;3.90;1.65;;;;;;;;;;5391673;22;20045;-70
2023/10/28 07:56:29;;;;;;;3.30;1.52;;;;;;;;;;5000052;28;20125;-69
2023/10/28 07:59:07;;;;;;;3.38;1.75;;;;;;;;;;5000013;28;20041;-69
2023/10/28 08:01:47;;;;;;;3.50;1.65;;;;;;;;;;5012909;28;20107;-70
2023/10/28 08:04:33;;;;;;;4.72;1.48;;;;;;;;;;5014083;28;20067;-70
2023/10/28 08:09:56;;;;;;;6.93;2.10;;;;;;;;;;5027612;28;20101;-69
2023/10/28 08:12:39;;;;;;;3.88;1.55;;;;;;;;;;5026339;28;20077;-69
2023/10/28 08:15:07;;;;;;;3.13;1.60;;;;;;;;;;5018263;28;20033;-67
2023/10/28 08:17:35;;;;;;;4.32;2.03;;;;;;;;;;5030198;28;20033;-68
2023/10/28 08:20:02;;;;;;;3.97;1.65;;;;;;;;;;5003524;28;20055;-67
2023/10/28 08:22:30;;;;;;;4.10;1.73;;;;;;;;;;4999622;28;20087;-69
2023/10/28 08:24:55;;;;;;;3.88;2.15;;;;;;;;;;4989454;28;21678;-71
2023/10/28 08:27:20;;;;;;;3.80;1.43;;;;;;;;;;5017194;28;20504;-70
2023/10/28 08:29:46;;;;;;;4.28;1.85;;;;;;;;;;5017780;28;20506;-71
2023/10/28 08:32:11;;;;;;;4.18;1.48;;;;;;;;;;5018899;28;20044;-73
2023/10/28 08:34:38;;;;;;;3.25;1.42;;;;;;;;;;5016029;28;20026;-72
2023/10/28 08:37:03;;;;;;;5.18;1.70;;;;;;;;;;5018056;28;20613;-72
2023/10/28 08:39:29;;;;;;;4.60;1.90;;;;;;;;;;5017989;28;20030;-71
2023/10/28 08:41:56;;;;;;;4.50;1.50;;;;;;;;;;5019687;28;20685;-74
2023/10/28 08:44:27;;;;;;;3.20;1.48;;;;;;;;;;5007082;28;20526;-73
2023/10/28 08:46:53;;;;;;;4.63;1.67;;;;;;;;;;5018441;28;20110;-73
2023/10/28 08:49:18;;;;;;;4.18;1.90;;;;;;;;;;5003902;28;20980;-72
2023/10/28 08:51:47;;;;;;;2.75;1.67;;;;;;;;;;5000322;28;20133;-69
2023/10/28 08:54:12;;;;;;;7.37;1.60;;;;;;;;;;5018572;28;20044;-68
2023/10/28 08:56:39;;;;;;;5.10;1.70;;;;;;;;;;4996149;28;20046;-72
2023/10/28 08:59:04;;;;;;;5.53;1.80;;;;;;;;;;5018503;28;20029;-70
2023/10/28 09:01:29;;;;;;;6.17;2.03;;;;;;;;;;5017828;28;20478;-71
2023/10/28 09:03:56;;;;;;;6.10;1.45;;;;;;;;;;5018886;28;20292;-74
2023/10/28 09:06:21;;;;;;;6.20;2.08;;;;;;;;;;5016921;28;20502;-71
2023/10/28 09:08:48;;;;;;;5.43;1.80;;;;;;;;;;5018701;28;20029;-71
2023/10/28 09:11:13;;;;;;;4.50;1.60;;;;;;;;;;5017762;28;20342;-70
2023/10/28 09:13:42;;;;;;;3.97;1.47;;;;;;;;;;4999647;28;20060;-70
2023/10/28 09:16:08;;;;;;;6.13;1.85;;;;;;;;;;4998214;28;20284;-70
2023/10/28 09:18:40;;;;;;;4.43;1.70;;;;;;;;;;5001093;28;20037;-70
2023/10/28 09:21:05;;;;;;;4.55;1.60;;;;;;;;;;5005797;28;20061;-72
2023/10/28 09:23:30;;;;;;;4.30;1.52;;;;;;;;;;5017357;28;20551;-72
2023/10/28 09:25:56;;;;;;;3.70;1.30;;;;;;;;;;5019481;28;20543;-71
2023/10/28 09:28:21;;;;;;;4.50;1.75;;;;;;;;;;5014232;28;20730;-73
2023/10/28 09:30:47;;;;;;;4.03;1.37;;;;;;;;;;5016545;28;20025;-73
2023/10/28 09:33:13;;;;;;;4.07;1.48;;;;;;;;;;4997315;28;20587;-72
2023/10/28 09:35:39;;;;;;;4.43;1.75;;;;;;;;;;5016162;28;20157;-71
2023/10/28 09:38:05;;;;;;;5.57;1.17;;;;;;;;;;5018811;28;20554;-69
2023/10/28 09:40:31;;;;;;;4.13;1.30;;;;;;;;;;4996870;28;20041;-77
2023/10/28 09:42:56;;;;;;;3.05;1.45;;;;;;;;;;4996243;28;20114;-71
2023/10/28 09:45:22;;;;;;;2.67;1.10;;;;;;;;;;5014762;28;20420;-85
2023/10/28 09:48:02;;;;;;;4.30;1.05;;;;;;;;;;5015262;28;20475;-77
2023/10/28 09:50:31;;;;;;;5.03;1.05;;;;;;;;;;4996941;28;20042;-72
2023/10/28 09:52:56;;;;;;;4.70;1.13;;;;;;;;;;5014347;28;20057;-73
2023/10/28 09:55:25;;;;;;;4.00;0.93;;;;;;;;;;4993745;28;20034;-72
2023/10/28 09:58:02;;;;;;;5.90;1.10;;;;;;;;;;5001300;28;20517;-73
2023/10/28 10:00:28;;;;;;;3.13;0.82;;;;;;;;;;4997516;28;20096;-74
2023/10/28 10:03:03;;;;;;;3.03;1.10;;;;;;;;;;5000958;28;20108;-73
2023/10/28 10:05:42;;;;;;;3.15;0.95;;;;;;;;;;5013293;28;20029;-71
2023/10/28 10:08:36;;;;;;;3.00;0.80;;;;;;;;;;5014741;28;20060;-71
2023/10/28 10:11:02;;;;;;;3.25;1.05;;;;;;;;;;4990185;28;20040;-70
2023/10/28 10:13:27;;;;;;;3.97;0.83;;;;;;;;;;5000281;28;20045;-70
2023/10/28 10:15:53;;;;;;;6.32;1.13;;;;;;;;;;4993804;28;20307;-69
2023/10/28 10:18:22;;;;;;;4.20;0.82;;;;;;;;;;5014279;28;20029;-69
2023/10/28 10:20:47;;;;;;;4.13;0.88;;;;;;;;;;5015726;28;20191;-70
2023/10/28 10:23:12;;;;;;;2.25;0.70;;;;;;;;;;4992326;28;20137;-72
2023/10/28 10:25:41;;;;;;;6.45;1.00;;;;;;;;;;5019824;28;20547;-72
2023/10/28 10:28:10;;;;;;;4.03;0.60;;;;;;;;;;5016712;28;20034;-71
2023/10/28 10:30:35;;;;;;;2.67;0.70;;;;;;;;;;5028227;28;20504;-70
2023/10/28 10:33:03;;;;;;;3.55;0.80;;;;;;;;;;4997381;28;20037;-70
2023/10/28 10:35:33;;;;;;;4.30;1.02;;;;;;;;;;5001173;28;20458;-70
2023/10/28 10:38:10;;;;;;;2.83;0.80;;;;;;;;;;5002575;28;20061;-69
2023/10/28 10:40:48;;;;;;;3.92;0.90;;;;;;;;;;5018269;28;20531;-71
2023/10/28 10:43:17;;;;;;;2.40;0.70;;;;;;;;;;5017031;28;20072;-69
2023/10/28 10:45:47;;;;;;;5.27;0.90;;;;;;;;;;5001740;28;20030;-72
2023/10/28 10:48:42;;;;;;;5.07;0.98;;;;;;;;;;5030635;28;20808;-69
2023/10/28 10:51:21;;;;;;;2.75;0.70;;;;;;;;;;5031965;28;20048;-70
2023/10/28 10:54:24;;;;;;;5.07;0.93;;;;;;;;;;5039432;28;20734;-71
2023/10/28 10:59:28;;;;;;;3.50;0.80;;;;;;;;;;5046331;23;20077;-70
2023/10/28 11:02:03;;;;;;;4.22;0.75;;;;;;;;;;5002765;28;20069;-71
2023/10/28 11:04:34;;;;;;;5.95;0.90;;;;;;;;;;5007139;28;20037;-70
2023/10/28 11:07:00;;;;;;;3.53;0.80;;;;;;;;;;5028437;28;20036;-72
2023/10/28 11:09:26;;;;;;;4.32;0.98;;;;;;;;;;5010543;28;20041;-71
2023/10/28 11:11:51;;;;;;;3.53;0.90;;;;;;;;;;5029149;28;20029;-72
2023/10/28 11:14:17;;;;;;;3.28;0.60;;;;;;;;;;5047174;28;20064;-72
2023/10/28 11:16:46;;;;;;;1.58;0.50;;;;;;;;;;5027832;28;20125;-74
2023/10/28 11:19:12;;;;;;;3.83;0.88;;;;;;;;;;5032385;28;20101;-72
2023/10/28 11:21:40;;;;;;;2.80;0.70;;;;;;;;;;5014491;28;20076;-70
2023/10/28 11:24:07;;;;;;;3.83;0.82;;;;;;;;;;5037662;28;20049;-72
2023/10/28 11:26:36;;;;;;;3.55;0.80;;;;;;;;;;4998848;28;20037;-71
2023/10/28 11:29:09;;;;;;;2.60;0.90;;;;;;;;;;5000450;28;20048;-72
2023/10/28 11:31:39;;;;;;;3.17;0.73;;;;;;;;;;4993524;28;20033;-72
2023/10/28 11:34:08;;;;;;;2.83;0.70;;;;;;;;;;5034842;28;20033;-71
2023/10/28 11:36:53;;;;;;;3.05;0.82;;;;;;;;;;5027694;28;20030;-71
2023/10/28 11:39:19;;;;;;;3.08;0.70;;;;;;;;;;4992020;28;20896;-70
2023/10/28 11:41:47;;;;;;;3.22;0.77;;;;;;;;;;5005298;28;20065;-71
2023/10/28 11:44:13;;;;;;;3.63;0.85;;;;;;;;;;5015569;28;20136;-71
2023/10/28 11:46:58;;;;;;;5.07;1.00;;;;;;;;;;5019018;28;20053;-69
2023/10/28 11:49:24;;;;;;;3.53;0.82;;;;;;;;;;5030792;28;20045;-71
2023/10/28 11:51:52;;;;;;;5.68;1.02;;;;;;;;;;5013503;28;20077;-71
2023/10/28 11:54:17;;;;;;;10.30;1.17;;;;;;;;;;5023563;28;20041;-71
2023/10/28 11:56:43;;;;;;;6.07;0.90;;;;;;;;;;4995421;28;20043;-73
2023/10/28 11:59:15;;;;;;;7.05;1.05;;;;;;;;;;5036056;28;20061;-71
2023/10/28 12:02:00;;;;;;;5.68;1.00;;;;;;;;;;5026618;28;20668;-71
2023/10/28 12:04:43;;;;;;;;;;;;;;;;;;;;;
2023/10/28 12:07:09;;;;;;;6.28;1.02;;;;;;;;;;5032336;28;20132;-71
2023/10/28 12:09:37;;;;;;;4.28;0.80;;;;;;;;;;5009292;28;20149;-72
2023/10/28 12:12:03;;;;;;;4.03;0.90;;;;;;;;;;5021810;28;20029;-73
2023/10/28 12:14:28;;;;;;;2.90;0.85;;;;;;;;;;5016489;28;20100;-73
2023/10/28 12:16:54;;;;;;;4.85;1.05;;;;;;;;;;5025007;28;20045;-73
2023/10/28 12:19:19;;;;;;;4.22;1.00;;;;;;;;;;5027002;28;20064;-74
2023/10/28 12:21:44;;;;;;;7.47;1.10;;;;;;;;;;5025852;28;20034;-72
2023/10/28 12:24:11;;;;;;;4.57;0.80;;;;;;;;;;5028476;28;20295;-73
2023/10/28 12:26:37;;;;;;;5.90;1.05;;;;;;;;;;5028593;28;20021;-72
2023/10/28 12:29:03;;;;;;;3.97;1.08;;;;;;;;;;5028532;28;20040;-73
2023/10/28 12:31:28;;;;;;;4.75;0.90;;;;;;;;;;5026342;28;20072;-69
2023/10/28 12:33:54;;;;;;;7.03;0.90;;;;;;;;;;5018205;28;20511;-87
2023/10/28 12:36:20;;;;;;;4.13;1.00;;;;;;;;;;5000856;28;20448;-73
2023/10/28 12:38:45;;;;;;;5.03;1.05;;;;;;;;;;5017040;28;20330;-70
2023/10/28 12:41:11;;;;;;;3.03;0.70;;;;;;;;;;5016769;28;20456;-69
2023/10/28 12:43:36;;;;;;;3.25;0.88;;;;;;;;;;5000339;28;20034;-70
2023/10/28 12:46:03;;;;;;;3.92;0.98;;;;;;;;;;5007340;28;20029;-72
2023/10/28 12:48:28;;;;;;;4.65;0.88;;;;;;;;;;5029403;28;20033;-72
2023/10/28 12:50:54;;;;;;;5.03;0.90;;;;;;;;;;5015930;28;20479;-71
2023/10/28 12:53:19;;;;;;;4.40;0.95;;;;;;;;;;5016500;28;20034;-71
2023/10/28 12:55:45;;;;;;;3.27;0.70;;;;;;;;;;5032559;28;20038;-70
2023/10/28 12:58:10;;;;;;;5.17;0.80;;;;;;;;;;5033617;28;20541;-72
2023/10/28 13:00:37;;;;;;;4.67;0.73;;;;;;;;;;5012065;28;20072;-72
2023/10/28 13:03:04;;;;;;;4.22;0.98;;;;;;;;;;5029483;28;20297;-73
2023/10/28 13:05:29;;;;;;;3.50;0.70;;;;;;;;;;5027176;28;20251;-71
2023/10/28 13:07:54;;;;;;;3.67;0.80;;;;;;;;;;5028135;28;20175;-72
2023/10/28 13:10:19;;;;;;;4.00;1.00;;;;;;;;;;5024381;28;20288;-72
2023/10/28 13:12:45;;;;;;;2.83;1.10;;;;;;;;;;5013179;28;20223;-72
2023/10/28 13:15:10;;;;;;;3.70;0.90;;;;;;;;;;5009419;28;20314;-71
2023/10/28 13:17:35;;;;;;;3.90;0.90;;;;;;;;;;4992411;28;20529;-72
2023/10/28 13:20:01;;;;;;;5.70;1.17;;;;;;;;;;5013007;28;20339;-72
2023/10/28 13:32:48;;;;;;;4.18;1.00;;;;;;;;;;5887034;22;20052;-90
2023/10/28 13:35:14;;;;;;;2.33;0.65;;;;;;;;;;5029611;28;20137;-89
2023/10/28 13:37:39;;;;;;;3.92;0.93;;;;;;;;;;5031715;28;20125;-90
2023/10/28 13:40:06;;;;;;;3.83;1.17;;;;;;;;;;4998546;28;20149;-87
2023/10/28 13:45:57;;;;;;;5.88;0.98;;;;;;;;;;5011819;28;20038;-60
2023/10/28 13:48:36;;;;;;;3.05;0.95;;;;;;;;;;5029591;28;20020;-60
2023/10/28 13:51:06;;;;;;;3.28;1.25;;;;;;;;;;5018219;28;20036;-60
2023/10/28 13:56:41;;;;;;;4.88;1.27;;;;;;;;;;5031546;28;20103;-61
2023/10/28 13:59:19;;;;;;;4.82;0.98;;;;;;;;;;5030173;28;20021;-62
2023/10/28 14:01:51;;;;;;;4.10;1.20;;;;;;;;;;5018226;28;20022;-61
2023/10/28 14:04:41;;;;;;;4.68;1.00;;;;;;;;;;4995342;28;20373;-61
2023/10/28 14:07:28;;;;;;;6.28;1.17;;;;;;;;;;5028020;28;20021;-61
2023/10/28 14:10:15;;;;;;;6.15;0.90;;;;;;;;;;5029795;28;20029;-60
2023/10/28 14:13:32;;;;;;;4.32;0.93;;;;;;;;;;4997159;28;20034;-61
2023/10/28 14:16:19;;;;;;;4.50;0.90;;;;;;;;;;5028538;28;20099;-61
2023/10/28 14:19:18;;;;;;;4.45;1.10;;;;;;;;;;5026900;28;20029;-61
2023/10/28 14:22:33;;;;;;;3.47;1.10;;;;;;;;;;5028714;28;20132;-60
2023/10/28 14:25:21;;;;;;;6.20;0.98;;;;;;;;;;5020986;28;20037;-60
2023/10/28 14:31:17;;;;;;;5.90;1.20;;;;;;;;;;5030393;28;20041;-61
2023/10/28 14:34:05;;;;;;;5.18;1.08;;;;;;;;;;5019164;28;20060;-61
2023/10/28 14:36:46;;;;;;;6.28;1.13;;;;;;;;;;5012363;28;20041;-61
2023/10/28 14:46:14;;;;;;;3.17;1.08;;;;;;;;;;5011755;28;20434;-59
2023/10/28 15:01:39;;;;;;;3.80;1.15;;;;;;;;;;4990281;28;20088;-60
2023/10/28 16:10:22;;;;;;;7.43;1.70;;;;;;;;;;4988863;28;20107;-62
2023/10/28 16:13:34;;;;;;;7.85;1.70;;;;;;;;;;4980245;28;20049;-62
2023/10/28 16:16:44;;;;;;;4.90;1.88;;;;;;;;;;4993554;28;20583;-60
2023/10/28 16:19:56;;;;;;;5.20;1.95;;;;;;;;;;4994334;28;20037;-62
2023/10/28 16:22:59;;;;;;;6.78;2.25;;;;;;;;;;4974093;28;20048;-60
2023/10/28 16:26:00;;;;;;;8.43;2.15;;;;;;;;;;4992647;28;20038;-60
2023/10/28 16:29:03;;;;;;;7.20;1.92;;;;;;;;;;4993963;28;20025;-62
2023/10/28 16:32:10;;;;;;;6.88;2.20;;;;;;;;;;4986257;28;20034;-60
2023/10/28 16:35:14;;;;;;;6.25;2.50;;;;;;;;;;4977725;28;20952;-61
2023/10/28 16:38:24;;;;;;;7.47;2.33;;;;;;;;;;4983106;28;20049;-62
2023/10/28 16:41:37;;;;;;;5.88;2.22;;;;;;;;;;4996014;28;20037;-62
2023/10/28 16:44:31;;;;;;;5.70;2.20;;;;;;;;;;5009873;28;20044;-63
2023/10/28 16:47:35;;;;;;;6.20;2.40;;;;;;;;;;4972529;28;20177;-59
2023/10/28 16:53:51;;;;;;;4.75;1.85;;;;;;;;;;4998715;28;20034;-61
2023/10/28 16:56:59;;;;;;;4.70;1.95;;;;;;;;;;4977213;28;20103;-60
2023/10/28 17:00:11;;;;;;;6.47;2.28;;;;;;;;;;4987983;28;20046;-61
2023/10/28 17:03:21;;;;;;;5.53;2.38;;;;;;;;;;4992589;28;20573;-61
2023/10/28 17:06:42;;;;;;;8.48;2.85;;;;;;;;;;4972377;28;20034;-59
2023/10/28 17:10:00;;;;;;;5.85;2.63;;;;;;;;;;4992794;28;20044;-61
2023/10/28 17:13:27;;;;;;;5.28;2.22;;;;;;;;;;5006396;28;20034;-60
2023/10/28 17:16:44;;;;;;;6.65;2.63;;;;;;;;;;4984756;28;20034;-60
2023/10/28 17:20:00;;;;;;;7.00;2.40;;;;;;;;;;4974248;28;20140;-62
2023/10/28 17:23:07;;;;;;;6.32;2.40;;;;;;;;;;5007468;28;20730;-61
2023/10/28 17:26:13;;;;;;;7.10;2.65;;;;;;;;;;4968940;28;20087;-62
2023/10/28 17:29:20;;;;;;;7.35;2.78;;;;;;;;;;4974687;28;20076;-60
2023/10/28 17:32:29;;;;;;;7.63;2.47;;;;;;;;;;4989811;28;20094;-61
2023/10/28 17:35:31;;;;;;;4.85;2.63;;;;;;;;;;4986207;28;20026;-61
2023/10/28 17:38:39;;;;;;;7.25;2.50;;;;;;;;;;4964923;28;20089;-59
2023/10/28 17:41:49;;;;;;;6.93;2.75;;;;;;;;;;4990817;28;20033;-60
2023/10/28 18:01:48;;;;;;;5.88;2.45;;;;;;;;;;4976614;28;20060;-62
2023/10/28 18:05:11;;;;;;;4.75;2.28;;;;;;;;;;4994130;28;20056;-64
2023/10/28 18:08:15;;;;;;;6.07;1.90;;;;;;;;;;4996078;28;20041;-61
2023/10/28 18:11:14;;;;;;;4.53;2.05;;;;;;;;;;4992839;28;20342;-60
2023/10/28 18:14:13;;;;;;;6.43;2.45;;;;;;;;;;4965491;28;20455;-60
2023/10/28 18:17:14;;;;;;;6.97;2.28;;;;;;;;;;4995075;28;20124;-61
2023/10/28 18:20:15;;;;;;;6.13;2.40;;;;;;;;;;4991781;28;20041;-61
2023/10/28 18:23:16;;;;;;;4.95;2.40;;;;;;;;;;4990292;28;20045;-60
2023/10/28 18:26:22;;;;;;;5.13;2.22;;;;;;;;;;4960984;28;20038;-61
2023/10/28 18:29:15;;;;;;;5.70;2.30;;;;;;;;;;4974095;28;20076;-60
2023/10/28 18:32:29;;;;;;;6.32;2.30;;;;;;;;;;5014382;28;20060;-60
2023/10/28 18:35:31;;;;;;;5.75;2.40;;;;;;;;;;4970520;28;20530;-60
2023/10/28 19:04:54;;;;;;;6.32;2.83;;;;;;;;;;5004848;28;20100;-64
2023/10/28 19:07:53;;;;;;;5.80;2.67;;;;;;;;;;4975044;28;20557;-62
2023/10/28 19:11:06;;;;;;;6.32;2.65;;;;;;;;;;4983867;28;20073;-60
2023/10/28 19:14:19;;;;;;;6.97;2.58;;;;;;;;;;5009562;28;20017;-61
2023/10/28 19:17:29;;;;;;;7.90;2.92;;;;;;;;;;4956806;28;20486;-61
2023/10/28 19:20:39;;;;;;;8.93;3.22;;;;;;;;;;4991160;28;20064;-62
2023/10/28 19:23:59;;;;;;;5.55;2.80;;;;;;;;;;4979558;28;20034;-62
2023/10/28 19:26:50;;;;;;;5.93;2.92;;;;;;;;;;4994758;28;20037;-63
2023/10/28 19:29:16;;;;;;;;;;;;;;;;;;4996269;28;20505;-61
2023/10/28 19:32:24;;;;;;;4.85;2.58;;;;;;;;;;4990282;28;20613;-61
2023/10/28 19:35:19;;;;;;;5.35;2.80;;;;;;;;;;4979441;28;20033;-62
2023/10/28 19:38:30;;;;;;;4.97;2.78;;;;;;;;;;5008782;28;20792;-63